createdAt,value
2019-04-27T00:00:49.127Z,96.83
2019-04-27T00:01:48.599Z,97.60
2019-04-27T00:02:48.103Z,94.48
2019-04-27T00:03:48.105Z,96.62
2019-04-27T00:04:48.705Z,95.39
2019-04-27T00:05:48.076Z,96.51
2019-04-27T00:06:48.053Z,94.37
2019-04-27T00:07:51.398Z,93.66
2019-04-27T00:08:49.036Z,95.09
2019-04-27T00:09:51.262Z,95.50
2019-04-27T00:10:48.009Z,95.19
2019-04-27T00:11:48.014Z,93.86
2019-04-27T00:12:47.992Z,96.42
2019-04-27T00:13:48.032Z,95.50
2019-04-27T00:14:48.365Z,94.68
2019-04-27T00:15:47.991Z,94.89
2019-04-27T00:16:50.857Z,94.27
2019-04-27T00:17:49.584Z,93.96
2019-04-27T00:18:49.696Z,93.25
2019-04-27T00:19:49.007Z,94.98
2019-04-27T00:20:47.907Z,94.89
2019-04-27T00:21:47.921Z,94.58
2019-04-27T00:22:47.880Z,95.19
2019-04-27T00:23:47.904Z,93.25
2019-04-27T00:24:47.862Z,94.98
2019-04-27T00:25:47.853Z,95.50
2019-04-27T00:26:47.838Z,93.86
2019-04-27T00:27:47.822Z,93.55
2019-04-27T00:28:47.928Z,92.54
2019-04-27T00:29:47.797Z,91.82
2019-04-27T00:30:47.790Z,92.43
2019-04-27T00:31:47.792Z,93.66
2019-04-27T00:32:47.796Z,93.25
2019-04-27T00:33:47.760Z,92.33
2019-04-27T00:34:47.757Z,93.55
2019-04-27T00:35:47.739Z,92.33
2019-04-27T00:36:47.718Z,93.91
2019-04-27T00:37:47.721Z,93.29
2019-04-27T00:38:47.700Z,94.07
2019-04-27T00:39:47.701Z,93.50
2019-04-27T00:40:47.699Z,92.88
2019-04-27T00:41:47.683Z,92.13
2019-04-27T00:42:47.658Z,93.25
2019-04-27T00:43:47.669Z,94.32
2019-04-27T00:44:47.641Z,92.43
2019-04-27T00:45:47.634Z,91.82
2019-04-27T00:46:47.611Z,92.23
2019-04-27T00:47:56.393Z,91.61
2019-04-27T00:48:48.620Z,92.37
2019-04-27T00:49:47.602Z,93.70
2019-04-27T00:50:47.573Z,96.05
2019-04-27T00:51:47.552Z,95.80
2019-04-27T00:52:47.544Z,93.25
2019-04-27T00:53:48.481Z,93.55
2019-04-27T00:54:47.536Z,95.29
2019-04-27T00:55:47.508Z,93.96
2019-04-27T00:56:47.513Z,93.35
2019-04-27T00:57:47.520Z,92.64
2019-04-27T00:58:47.491Z,92.54
2019-04-27T00:59:47.477Z,92.33
2019-04-27T01:00:47.465Z,92.84
2019-04-27T01:01:47.445Z,92.84
2019-04-27T01:02:47.448Z,92.33
2019-04-27T01:03:47.428Z,93.15
2019-04-27T01:04:47.422Z,94.07
2019-04-27T01:05:47.410Z,94.48
2019-04-27T01:06:47.405Z,92.43
2019-04-27T01:07:47.381Z,91.92
2019-04-27T01:08:47.489Z,92.23
2019-04-27T01:09:47.357Z,92.23
2019-04-27T01:10:47.352Z,92.74
2019-04-27T01:11:47.344Z,92.80
2019-04-27T01:12:47.327Z,92.02
2019-04-27T01:13:47.319Z,91.78
2019-04-27T01:14:47.329Z,92.02
2019-04-27T01:15:47.294Z,92.23
2019-04-27T01:16:47.276Z,91.72
2019-04-27T01:17:49.038Z,92.08
2019-04-27T01:18:48.857Z,91.72
2019-04-27T01:19:47.257Z,92.02
2019-04-27T01:20:48.866Z,92.13
2019-04-27T01:21:47.237Z,92.19
2019-04-27T01:22:47.217Z,92.33
2019-04-27T01:23:48.762Z,92.13
2019-04-27T01:24:47.194Z,92.19
2019-04-27T01:25:48.834Z,92.64
2019-04-27T01:26:47.165Z,95.29
2019-04-27T01:27:47.150Z,93.21
2019-04-27T01:28:48.962Z,93.92
2019-04-27T01:29:47.158Z,92.29
2019-04-27T01:30:48.923Z,91.78
2019-04-27T01:31:48.666Z,92.08
2019-04-27T01:32:47.097Z,91.88
2019-04-27T01:33:48.790Z,91.57
2019-04-27T01:34:47.089Z,92.08
2019-04-27T01:35:47.069Z,92.19
2019-04-27T01:36:47.070Z,93.92
2019-04-27T01:37:48.669Z,94.64
2019-04-27T01:38:47.040Z,91.78
2019-04-27T01:39:48.573Z,92.08
2019-04-27T01:40:47.028Z,91.88
2019-04-27T01:41:46.998Z,91.78
2019-04-27T01:42:48.387Z,93.92
2019-04-27T01:43:46.976Z,95.04
2019-04-27T01:44:47.032Z,92.39
2019-04-27T01:45:48.735Z,94.49
2019-04-27T01:46:48.581Z,93.51
2019-04-27T01:47:46.936Z,92.08
2019-04-27T01:48:46.915Z,92.45
2019-04-27T01:49:46.915Z,94.94
2019-04-27T01:50:46.916Z,93.57
2019-04-27T01:51:46.903Z,91.88
2019-04-27T01:52:48.579Z,92.29
2019-04-27T01:53:46.877Z,94.18
2019-04-27T01:54:46.964Z,92.49
2019-04-27T01:55:49.011Z,92.14
2019-04-27T01:56:46.913Z,93.98
2019-04-27T01:57:48.645Z,92.35
2019-04-27T01:58:46.812Z,92.86
2019-04-27T01:59:46.803Z,92.14
2019-04-27T02:00:46.826Z,91.94
2019-04-27T02:01:46.778Z,93.57
2019-04-27T02:02:46.784Z,94.79
2019-04-27T02:03:46.747Z,93.26
2019-04-27T02:04:46.756Z,94.29
2019-04-27T02:05:46.739Z,92.55
2019-04-27T02:06:48.610Z,90.92
2019-04-27T02:07:46.705Z,90.51
2019-04-27T02:08:46.710Z,90.20
2019-04-27T02:09:46.696Z,91.83
2019-04-27T02:10:46.802Z,89.59
2019-04-27T02:11:46.656Z,90.51
2019-04-27T02:12:48.624Z,90.81
2019-04-27T02:13:46.642Z,89.49
2019-04-27T02:14:46.655Z,91.53
2019-04-27T02:15:48.555Z,90.61
2019-04-27T02:16:46.662Z,89.49
2019-04-27T02:17:46.597Z,89.53
2019-04-27T02:18:46.582Z,89.79
2019-04-27T02:19:46.596Z,92.45
2019-04-27T02:20:46.559Z,91.83
2019-04-27T02:21:46.593Z,90.71
2019-04-27T02:22:46.546Z,90.81
2019-04-27T02:23:46.540Z,90.92
2019-04-27T02:24:46.540Z,89.69
2019-04-27T02:25:46.571Z,88.88
2019-04-27T02:26:46.501Z,89.32
2019-04-27T02:27:46.500Z,89.12
2019-04-27T02:28:46.608Z,88.82
2019-04-27T02:29:46.456Z,88.71
2019-04-27T02:30:46.458Z,89.23
2019-04-27T02:31:46.458Z,90.75
2019-04-27T02:32:46.431Z,91.88
2019-04-27T02:33:46.420Z,91.67
2019-04-27T02:34:46.404Z,92.49
2019-04-27T02:35:46.403Z,90.96
2019-04-27T02:36:46.433Z,89.84
2019-04-27T02:37:46.399Z,89.02
2019-04-27T02:38:46.380Z,88.71
2019-04-27T02:39:46.378Z,89.23
2019-04-27T02:40:46.340Z,89.02
2019-04-27T02:41:46.348Z,90.45
2019-04-27T02:42:46.337Z,90.35
2019-04-27T02:43:46.334Z,91.31
2019-04-27T02:44:46.311Z,89.32
2019-04-27T02:45:46.287Z,89.47
2019-04-27T02:46:46.636Z,89.23
2019-04-27T02:47:46.267Z,88.55
2019-04-27T02:48:58.647Z,88.96
2019-04-27T02:49:47.239Z,89.17
2019-04-27T02:50:46.233Z,90.86
2019-04-27T02:51:46.212Z,90.49
2019-04-27T02:52:46.212Z,88.45
2019-04-27T02:53:46.204Z,87.84
2019-04-27T02:54:46.180Z,87.12
2019-04-27T02:55:46.185Z,87.43
2019-04-27T02:56:46.161Z,87.84
2019-04-27T02:57:46.152Z,87.84
2019-04-27T02:58:46.136Z,87.43
2019-04-27T02:59:46.143Z,87.02
2019-04-27T03:00:46.122Z,87.73
2019-04-27T03:01:46.885Z,88.65
2019-04-27T03:02:46.104Z,87.53
2019-04-27T03:03:46.076Z,87.12
2019-04-27T03:04:46.073Z,87.84
2019-04-27T03:05:46.126Z,87.12
2019-04-27T03:06:46.085Z,87.02
2019-04-27T03:07:46.037Z,87.02
2019-04-27T03:08:49.513Z,87.02
2019-04-27T03:09:47.012Z,87.12
2019-04-27T03:10:46.027Z,87.16
2019-04-27T03:11:46.126Z,86.51
2019-04-27T03:12:45.992Z,86.91
2019-04-27T03:13:45.973Z,87.43
2019-04-27T03:14:45.958Z,86.96
2019-04-27T03:15:45.956Z,86.41
2019-04-27T03:16:45.954Z,87.16
2019-04-27T03:17:45.970Z,87.67
2019-04-27T03:18:45.943Z,89.17
2019-04-27T03:19:45.948Z,88.65
2019-04-27T03:20:45.888Z,88.45
2019-04-27T03:21:45.888Z,88.39
2019-04-27T03:22:45.890Z,90.59
2019-04-27T03:23:45.876Z,87.98
2019-04-27T03:24:45.844Z,89.47
2019-04-27T03:25:45.832Z,88.65
2019-04-27T03:26:45.823Z,88.55
2019-04-27T03:27:45.838Z,88.96
2019-04-27T03:28:45.811Z,87.43
2019-04-27T03:29:45.787Z,87.23
2019-04-27T03:30:45.772Z,88.65
2019-04-27T03:31:47.464Z,88.65
2019-04-27T03:32:51.372Z,87.94
2019-04-27T03:33:50.619Z,86.91
2019-04-27T03:34:46.730Z,87.12
2019-04-27T03:35:45.721Z,87.12
2019-04-27T03:36:45.707Z,88.85
2019-04-27T03:37:46.021Z,89.26
2019-04-27T03:38:45.695Z,88.96
2019-04-27T03:39:45.682Z,89.37
2019-04-27T03:40:45.688Z,88.55
2019-04-27T03:41:45.675Z,87.73
2019-04-27T03:42:45.649Z,87.12
2019-04-27T03:43:45.646Z,87.94
2019-04-27T03:44:45.629Z,88.51
2019-04-27T03:45:45.613Z,89.02
2019-04-27T03:46:45.638Z,88.96
2019-04-27T03:47:45.732Z,88.55
2019-04-27T03:48:45.581Z,88.04
2019-04-27T03:49:45.570Z,89.02
2019-04-27T03:50:45.568Z,88.20
2019-04-27T03:51:45.567Z,87.38
2019-04-27T03:52:45.557Z,87.79
2019-04-27T03:53:45.529Z,87.79
2019-04-27T03:54:45.555Z,87.79
2019-04-27T03:55:45.491Z,88.82
2019-04-27T03:56:45.490Z,88.61
2019-04-27T03:57:45.480Z,88.71
2019-04-27T03:58:45.473Z,89.12
2019-04-27T03:59:45.452Z,89.94
2019-04-27T04:00:45.440Z,87.90
2019-04-27T04:01:45.452Z,88.51
2019-04-27T04:02:45.425Z,87.90
2019-04-27T04:03:45.456Z,87.49
2019-04-27T04:04:45.392Z,87.08
2019-04-27T04:05:45.396Z,87.49
2019-04-27T04:06:45.451Z,86.67
2019-04-27T04:07:45.387Z,86.88
2019-04-27T04:08:45.370Z,88.51
2019-04-27T04:09:45.374Z,88.51
2019-04-27T04:10:45.327Z,86.57
2019-04-27T04:11:45.316Z,88.10
2019-04-27T04:12:45.313Z,88.92
2019-04-27T04:13:45.311Z,88.92
2019-04-27T04:14:45.280Z,88.20
2019-04-27T04:15:45.273Z,87.90
2019-04-27T04:16:45.263Z,86.88
2019-04-27T04:17:45.387Z,87.18
2019-04-27T04:18:45.254Z,87.49
2019-04-27T04:19:54.412Z,88.61
2019-04-27T04:20:46.217Z,88.51
2019-04-27T04:21:45.202Z,87.18
2019-04-27T04:22:45.423Z,87.49
2019-04-27T04:23:45.512Z,87.59
2019-04-27T04:24:45.166Z,87.29
2019-04-27T04:25:45.197Z,87.59
2019-04-27T04:26:45.173Z,87.38
2019-04-27T04:27:45.150Z,88.61
2019-04-27T04:28:45.137Z,88.82
2019-04-27T04:29:45.119Z,89.63
2019-04-27T04:30:45.110Z,89.23
2019-04-27T04:31:45.140Z,88.51
2019-04-27T04:32:45.077Z,89.23
2019-04-27T04:33:45.127Z,88.31
2019-04-27T04:34:45.060Z,88.61
2019-04-27T04:35:45.063Z,87.90
2019-04-27T04:36:45.049Z,88.61
2019-04-27T04:37:45.027Z,88.61
2019-04-27T04:38:45.019Z,88.61
2019-04-27T04:39:45.011Z,88.92
2019-04-27T04:40:44.996Z,88.92
2019-04-27T04:41:45.004Z,88.41
2019-04-27T04:42:44.985Z,89.23
2019-04-27T04:43:44.989Z,88.26
2019-04-27T04:44:44.944Z,87.96
2019-04-27T04:45:44.957Z,87.49
2019-04-27T04:46:44.943Z,87.59
2019-04-27T04:47:44.920Z,87.59
2019-04-27T04:48:44.947Z,87.79
2019-04-27T04:49:44.886Z,87.14
2019-04-27T04:50:44.891Z,87.76
2019-04-27T04:51:44.869Z,88.26
2019-04-27T04:52:44.874Z,88.57
2019-04-27T04:53:44.886Z,87.65
2019-04-27T04:54:44.830Z,88.57
2019-04-27T04:55:44.818Z,88.47
2019-04-27T04:56:44.813Z,88.47
2019-04-27T04:57:44.808Z,88.17
2019-04-27T04:58:44.818Z,87.65
2019-04-27T04:59:44.795Z,88.67
2019-04-27T05:00:44.771Z,88.67
2019-04-27T05:01:44.751Z,88.37
2019-04-27T05:02:44.764Z,88.57
2019-04-27T05:03:44.746Z,87.76
2019-04-27T05:04:44.742Z,87.85
2019-04-27T05:05:44.728Z,88.17
2019-04-27T05:06:44.694Z,88.47
2019-04-27T05:07:44.685Z,88.67
2019-04-27T05:08:44.695Z,87.10
2019-04-27T05:09:44.667Z,87.35
2019-04-27T05:10:44.660Z,87.71
2019-04-27T05:11:44.637Z,88.93
2019-04-27T05:12:44.626Z,88.47
2019-04-27T05:13:44.628Z,88.26
2019-04-27T05:14:44.608Z,87.82
2019-04-27T05:15:44.616Z,87.20
2019-04-27T05:16:44.609Z,88.43
2019-04-27T05:17:44.567Z,88.37
2019-04-27T05:18:44.653Z,87.71
2019-04-27T05:19:44.552Z,87.82
2019-04-27T05:20:44.552Z,87.61
2019-04-27T05:21:44.526Z,87.71
2019-04-27T05:22:44.514Z,88.67
2019-04-27T05:23:44.513Z,87.71
2019-04-27T05:24:44.486Z,88.73
2019-04-27T05:25:44.487Z,88.73
2019-04-27T05:26:44.464Z,87.61
2019-04-27T05:27:44.473Z,87.61
2019-04-27T05:28:44.469Z,87.71
2019-04-27T05:29:44.430Z,87.30
2019-04-27T05:30:44.420Z,87.00
2019-04-27T05:31:44.432Z,87.00
2019-04-27T05:32:44.407Z,87.92
2019-04-27T05:33:44.440Z,87.51
2019-04-27T05:34:44.374Z,87.41
2019-04-27T05:35:44.385Z,86.69
2019-04-27T05:36:48.461Z,86.80
2019-04-27T05:37:45.359Z,87.61
2019-04-27T05:38:45.988Z,88.12
2019-04-27T05:39:44.316Z,87.71
2019-04-27T05:40:44.306Z,87.10
2019-04-27T05:41:44.308Z,86.86
2019-04-27T05:42:44.290Z,86.65
2019-04-27T05:43:44.281Z,86.55
2019-04-27T05:44:45.637Z,86.69
2019-04-27T05:45:44.250Z,87.61
2019-04-27T05:46:44.242Z,87.37
2019-04-27T05:47:48.367Z,86.96
2019-04-27T05:48:45.230Z,87.26
2019-04-27T05:49:44.672Z,87.77
2019-04-27T05:50:45.943Z,86.96
2019-04-27T05:51:44.181Z,87.26
2019-04-27T05:52:44.180Z,87.06
2019-04-27T05:53:44.163Z,86.65
2019-04-27T05:54:44.183Z,87.47
2019-04-27T05:55:44.150Z,86.86
2019-04-27T05:56:44.168Z,86.76
2019-04-27T05:57:44.109Z,86.00
2019-04-27T05:58:44.100Z,86.96
2019-04-27T05:59:44.098Z,85.80
2019-04-27T06:00:44.087Z,85.19
2019-04-27T06:01:44.096Z,87.23
2019-04-27T06:02:44.056Z,86.82
2019-04-27T06:03:44.057Z,85.90
2019-04-27T06:04:44.059Z,85.28
2019-04-27T06:05:44.036Z,85.69
2019-04-27T06:06:44.028Z,86.27
2019-04-27T06:07:43.998Z,86.57
2019-04-27T06:08:43.988Z,85.96
2019-04-27T06:09:44.081Z,85.90
2019-04-27T06:10:43.977Z,85.05
2019-04-27T06:11:43.962Z,85.35
2019-04-27T06:12:43.956Z,84.98
2019-04-27T06:13:43.928Z,84.53
2019-04-27T06:14:43.917Z,84.84
2019-04-27T06:15:43.929Z,85.28
2019-04-27T06:16:43.906Z,84.88
2019-04-27T06:17:43.894Z,85.05
2019-04-27T06:18:43.871Z,84.94
2019-04-27T06:19:44.036Z,85.55
2019-04-27T06:20:53.310Z,85.35
2019-04-27T06:21:44.843Z,85.66
2019-04-27T06:22:43.832Z,85.75
2019-04-27T06:23:43.838Z,85.05
2019-04-27T06:24:43.805Z,85.00
2019-04-27T06:25:43.799Z,85.14
2019-04-27T06:26:43.808Z,84.74
2019-04-27T06:27:43.765Z,84.94
2019-04-27T06:28:43.768Z,85.82
2019-04-27T06:29:43.775Z,84.64
2019-04-27T06:30:43.761Z,85.25
2019-04-27T06:31:43.723Z,85.41
2019-04-27T06:32:43.716Z,85.21
2019-04-27T06:33:43.702Z,84.80
2019-04-27T06:34:43.706Z,85.31
2019-04-27T06:35:43.958Z,84.86
2019-04-27T06:36:43.665Z,84.45
2019-04-27T06:37:43.662Z,85.06
2019-04-27T06:38:43.662Z,84.35
2019-04-27T06:39:43.639Z,85.06
2019-04-27T06:40:43.644Z,84.72
2019-04-27T06:41:43.614Z,83.95
2019-04-27T06:42:43.598Z,83.64
2019-04-27T06:43:43.589Z,84.25
2019-04-27T06:44:43.602Z,85.03
2019-04-27T06:45:43.579Z,84.97
2019-04-27T06:46:44.716Z,84.05
2019-04-27T06:47:43.536Z,84.01
2019-04-27T06:48:43.526Z,83.91
2019-04-27T06:49:43.537Z,83.81
2019-04-27T06:50:43.528Z,84.25
2019-04-27T06:51:43.515Z,84.31
2019-04-27T06:52:43.481Z,84.31
2019-04-27T06:53:43.480Z,84.31
2019-04-27T06:54:43.468Z,83.91
2019-04-27T06:55:43.454Z,82.48
2019-04-27T06:56:43.462Z,82.79
2019-04-27T06:57:43.458Z,82.07
2019-04-27T06:58:43.418Z,82.38
2019-04-27T06:59:43.414Z,82.99
2019-04-27T07:00:43.400Z,83.20
2019-04-27T07:01:43.392Z,83.40
2019-04-27T07:02:43.382Z,82.85
2019-04-27T07:03:43.353Z,82.24
2019-04-27T07:04:43.343Z,82.45
2019-04-27T07:05:43.350Z,83.06
2019-04-27T07:06:53.267Z,82.14
2019-04-27T07:07:44.336Z,82.04
2019-04-27T07:08:43.308Z,81.73
2019-04-27T07:09:43.288Z,82.40
2019-04-27T07:10:43.284Z,80.78
2019-04-27T07:11:43.265Z,81.33
2019-04-27T07:12:43.255Z,81.63
2019-04-27T07:13:43.261Z,81.84
2019-04-27T07:14:52.406Z,81.84
2019-04-27T07:15:44.238Z,80.17
2019-04-27T07:16:43.208Z,80.07
2019-04-27T07:17:43.209Z,79.36
2019-04-27T07:18:43.185Z,80.17
2019-04-27T07:19:43.177Z,79.36
2019-04-27T07:20:43.237Z,80.17
2019-04-27T07:21:43.155Z,79.97
2019-04-27T07:22:43.140Z,80.78
2019-04-27T07:23:43.138Z,81.29
2019-04-27T07:24:43.170Z,81.49
2019-04-27T07:25:43.161Z,81.15
2019-04-27T07:26:43.094Z,80.03
2019-04-27T07:27:43.086Z,80.64
2019-04-27T07:28:43.104Z,80.13
2019-04-27T07:29:44.570Z,81.35
2019-04-27T07:30:43.096Z,79.90
2019-04-27T07:31:43.053Z,78.27
2019-04-27T07:32:43.024Z,77.05
2019-04-27T07:33:43.020Z,76.95
2019-04-27T07:34:43.095Z,77.66
2019-04-27T07:35:43.021Z,76.95
2019-04-27T07:36:42.991Z,77.05
2019-04-27T07:37:42.995Z,76.75
2019-04-27T07:38:42.958Z,77.36
2019-04-27T07:39:42.946Z,78.06
2019-04-27T07:40:43.049Z,77.05
2019-04-27T07:41:42.928Z,77.22
2019-04-27T07:42:42.923Z,78.33
2019-04-27T07:43:42.901Z,78.64
2019-04-27T07:44:42.891Z,76.91
2019-04-27T07:45:42.888Z,77.32
2019-04-27T07:46:42.899Z,77.72
2019-04-27T07:47:42.859Z,76.10
2019-04-27T07:48:42.861Z,76.40
2019-04-27T07:49:42.928Z,76.31
2019-04-27T07:50:42.823Z,76.20
2019-04-27T07:51:42.887Z,76.00
2019-04-27T07:52:42.826Z,77.32
2019-04-27T07:53:42.817Z,77.32
2019-04-27T07:54:42.780Z,77.93
2019-04-27T07:55:42.778Z,78.13
2019-04-27T07:56:43.039Z,76.20
2019-04-27T07:57:43.131Z,75.59
2019-04-27T07:58:42.768Z,77.12
2019-04-27T07:59:42.739Z,77.62
2019-04-27T08:00:43.065Z,76.71
2019-04-27T08:01:42.912Z,76.51
2019-04-27T08:02:43.318Z,76.61
2019-04-27T08:03:43.786Z,77.62
2019-04-27T08:04:42.669Z,76.31
2019-04-27T08:05:42.852Z,76.91
2019-04-27T08:06:42.655Z,76.31
2019-04-27T08:07:44.187Z,76.10
2019-04-27T08:08:43.281Z,77.01
2019-04-27T08:09:42.649Z,78.33
2019-04-27T08:10:42.645Z,77.62
2019-04-27T08:11:42.672Z,76.31
2019-04-27T08:12:42.816Z,77.32
2019-04-27T08:13:42.780Z,77.52
2019-04-27T08:14:49.543Z,77.18
2019-04-27T08:15:42.698Z,77.12
2019-04-27T08:16:42.796Z,76.00
2019-04-27T08:17:49.462Z,76.10
2019-04-27T08:18:43.892Z,76.71
2019-04-27T08:21:09.041Z,75.86
2019-04-27T08:22:01.502Z,77.28
2019-04-27T08:23:19.411Z,76.61
2019-04-27T08:24:29.424Z,75.66
2019-04-27T08:25:31.088Z,76.31
2019-04-27T08:27:46.703Z,77.38
2019-04-27T08:28:33.774Z,75.66
2019-04-27T08:29:51.810Z,76.06
2019-04-27T08:30:29.538Z,76.78
2019-04-27T08:31:29.170Z,77.55
2019-04-27T08:32:29.366Z,77.95
2019-04-27T08:33:28.981Z,77.65
2019-04-27T08:34:29.558Z,76.20
2019-04-27T08:35:31.084Z,76.54
2019-04-27T08:36:51.495Z,77.31
2019-04-27T08:41:59.448Z,73.43
2019-04-27T08:42:56.098Z,73.32
2019-04-27T08:43:48.817Z,74.54
2019-04-27T08:44:49.654Z,72.88
2019-04-27T08:45:48.801Z,72.81
2019-04-27T08:46:49.549Z,73.09
2019-04-27T08:47:49.810Z,73.80
2019-04-27T08:48:48.984Z,71.88
2019-04-27T08:49:49.174Z,71.67
2019-04-27T08:50:48.670Z,71.57
2019-04-27T08:51:57.188Z,71.67
2019-04-27T08:52:50.111Z,72.38
2019-04-27T08:53:47.830Z,72.99
2019-04-27T08:54:49.333Z,72.38
2019-04-27T08:55:49.380Z,72.24
2019-04-27T08:56:49.260Z,71.94
2019-04-27T08:57:48.957Z,73.15
2019-04-27T08:58:49.541Z,70.52
2019-04-27T08:59:48.956Z,70.32
2019-04-27T09:00:49.059Z,71.44
2019-04-27T09:01:49.201Z,71.50
2019-04-27T09:02:49.998Z,71.09
2019-04-27T09:03:49.409Z,69.78
2019-04-27T09:04:49.365Z,69.98
2019-04-27T09:05:49.017Z,69.68
2019-04-27T09:06:51.134Z,69.68
2019-04-27T09:07:49.675Z,70.18
2019-04-27T09:08:49.550Z,69.78
2019-04-27T09:09:49.700Z,70.18
2019-04-27T09:10:48.907Z,70.39
2019-04-27T09:11:49.406Z,71.17
2019-04-27T09:12:50.073Z,70.15
2019-04-27T09:13:49.373Z,69.04
2019-04-27T09:14:49.371Z,70.05
2019-04-27T09:15:49.336Z,70.66
2019-04-27T09:16:59.930Z,69.65
2019-04-27T09:17:49.376Z,69.14
2019-04-27T09:18:49.712Z,69.95
2019-04-27T09:19:49.054Z,70.12
2019-04-27T09:20:49.049Z,71.23
2019-04-27T09:21:48.551Z,70.73
2019-04-27T09:22:49.193Z,68.91
2019-04-27T09:23:48.893Z,68.98
2019-04-27T09:24:49.282Z,66.99
2019-04-27T09:25:49.413Z,64.97
2019-04-27T09:26:49.148Z,66.86
2019-04-27T09:27:49.295Z,65.14
2019-04-27T09:28:52.416Z,65.84
2019-04-27T09:29:50.499Z,67.53
2019-04-27T09:31:02.781Z,66.02
2019-04-27T09:31:54.288Z,66.32
2019-04-27T09:32:47.383Z,68.54
2019-04-27T09:33:48.361Z,67.40
2019-04-27T09:34:47.279Z,66.69
2019-04-27T09:36:11.950Z,66.52
2019-04-27T09:36:52.215Z,61.65
2019-04-27T09:37:49.699Z,59.73
2019-04-27T09:38:50.424Z,60.26
2019-04-27T09:39:47.195Z,62.05
2019-04-27T09:40:47.241Z,62.25
2019-04-27T09:41:48.376Z,60.13
2019-04-27T09:42:47.225Z,59.15
2019-04-27T09:43:47.198Z,61.75
2019-04-27T09:44:47.599Z,59.42
2019-04-27T09:45:47.257Z,60.24
2019-04-27T09:46:47.559Z,60.53
2019-04-27T09:47:47.149Z,60.44
2019-04-27T09:48:47.171Z,60.16
2019-04-27T09:49:47.111Z,60.06
2019-04-27T09:50:47.092Z,60.16
2019-04-27T09:51:47.094Z,59.93
2019-04-27T09:52:47.148Z,59.83
2019-04-27T09:53:47.162Z,62.05
2019-04-27T09:54:49.170Z,59.40
2019-04-27T09:55:47.052Z,60.24
2019-04-27T09:56:53.267Z,59.63
2019-04-27T09:57:48.498Z,59.83
2019-04-27T09:58:50.322Z,60.13
2019-04-27T09:59:47.599Z,59.53
2019-04-27T10:00:47.095Z,60.13
2019-04-27T10:01:47.132Z,60.13
2019-04-27T10:02:46.956Z,60.44
2019-04-27T10:03:46.958Z,61.92
2019-04-27T10:04:46.981Z,60.21
2019-04-27T10:05:46.987Z,62.43
2019-04-27T10:06:48.837Z,62.02
2019-04-27T10:07:47.686Z,61.82
2019-04-27T10:08:46.884Z,61.92
2019-04-27T10:09:47.480Z,58.39
2019-04-27T10:10:47.979Z,58.39
2019-04-27T10:13:17.286Z,59.40
2019-04-27T10:14:07.867Z,60.21
2019-04-27T10:15:06.121Z,59.30
2019-04-27T10:16:05.065Z,58.47
2019-04-27T10:17:07.419Z,58.56
2019-04-27T10:18:06.053Z,58.16
2019-04-27T10:19:04.973Z,58.16
2019-04-27T10:20:05.996Z,58.56
2019-04-27T10:21:06.356Z,60.28
2019-04-27T10:22:05.746Z,59.24
2019-04-27T10:23:06.248Z,59.55
2019-04-27T10:24:06.568Z,56.92
2019-04-27T10:25:04.878Z,57.83
2019-04-27T10:26:13.271Z,57.32
2019-04-27T10:27:13.293Z,57.00
2019-04-27T10:28:06.558Z,57.50
2019-04-27T10:31:00.182Z,56.70
2019-04-27T10:32:02.552Z,57.50
2019-04-27T10:32:58.319Z,56.20
2019-04-27T10:33:55.974Z,56.60
2019-04-27T10:34:55.266Z,56.27
2019-04-27T10:35:56.427Z,56.20
2019-04-27T10:36:55.912Z,56.29
2019-04-27T10:37:55.551Z,56.77
2019-04-27T10:38:55.614Z,55.39
2019-04-27T10:39:56.438Z,56.27
2019-04-27T10:40:55.474Z,55.96
2019-04-27T10:41:56.340Z,56.16
2019-04-27T10:43:06.048Z,56.27
2019-04-27T10:43:55.290Z,55.66
2019-04-27T10:44:56.099Z,54.96
2019-04-27T10:45:56.526Z,55.06
2019-04-27T10:46:55.146Z,56.16
2019-04-27T10:47:56.279Z,57.28
2019-04-27T10:48:55.648Z,55.87
2019-04-27T10:49:56.679Z,55.23
2019-04-27T10:50:55.151Z,55.13
2019-04-27T10:51:58.772Z,55.13
2019-04-27T10:52:58.886Z,53.63
2019-04-27T10:53:57.997Z,53.63
2019-04-27T10:54:55.644Z,53.63
2019-04-27T10:55:56.575Z,52.92
2019-04-27T10:56:55.894Z,54.03
2019-04-27T10:57:54.973Z,52.72
2019-04-27T10:58:55.804Z,53.22
2019-04-27T10:59:56.316Z,53.09
2019-04-27T11:00:56.526Z,53.90
2019-04-27T11:01:56.033Z,53.40
2019-04-27T11:02:56.597Z,53.02
2019-04-27T11:03:55.520Z,52.82
2019-04-27T11:05:19.438Z,53.12
2019-04-27T11:05:56.987Z,52.89
2019-04-27T11:06:56.084Z,52.80
2019-04-27T11:07:56.453Z,51.99
2019-04-27T11:08:56.117Z,51.99
2019-04-27T11:09:58.487Z,51.68
2019-04-27T11:10:56.424Z,51.18
2019-04-27T11:11:56.849Z,50.38
2019-04-27T11:13:00.066Z,50.58
2019-04-27T11:13:56.935Z,51.29
2019-04-27T11:14:54.824Z,51.89
2019-04-27T11:15:54.810Z,51.79
2019-04-27T11:16:56.008Z,52.47
2019-04-27T11:17:56.200Z,51.66
2019-04-27T11:18:56.132Z,51.97
2019-04-27T11:19:54.756Z,51.36
2019-04-27T11:20:56.631Z,51.46
2019-04-27T11:21:54.687Z,51.46
2019-04-27T11:23:06.644Z,50.15
2019-04-27T11:24:00.111Z,50.26
2019-04-27T11:25:09.897Z,48.95
2019-04-27T11:26:03.114Z,48.85
2019-04-27T11:26:59.255Z,50.35
2019-04-27T11:27:57.775Z,48.72
2019-04-27T11:28:56.869Z,47.14
2019-04-27T11:29:58.879Z,48.75
2019-04-27T11:31:22.231Z,49.83
2019-04-27T11:31:55.612Z,49.13
2019-04-27T11:33:03.702Z,49.63
2019-04-27T11:34:02.285Z,51.04
2019-04-27T11:34:55.968Z,49.33
2019-04-27T11:35:56.353Z,49.71
2019-04-27T11:37:02.094Z,49.91
2019-04-27T11:37:56.331Z,48.10
2019-04-27T11:38:56.439Z,48.10
2019-04-27T11:39:55.942Z,47.82
2019-04-27T11:40:56.659Z,47.19
2019-04-27T11:42:03.050Z,48.43
2019-04-27T11:42:57.014Z,49.43
2019-04-27T11:43:54.430Z,50.03
2019-04-27T11:44:58.079Z,50.23
2019-04-27T11:45:55.910Z,50.84
2019-04-27T11:46:55.919Z,50.63
2019-04-27T11:47:55.341Z,48.72
2019-04-27T11:48:57.970Z,48.63
2019-04-27T11:49:54.363Z,50.23
2019-04-27T11:50:56.114Z,50.03
2019-04-27T11:52:01.791Z,50.23
2019-04-27T11:58:06.637Z,48.83
2019-04-27T11:59:32.350Z,48.93
2019-04-27T12:00:05.015Z,48.60
2019-04-27T12:01:21.841Z,48.30
2019-04-27T12:02:05.698Z,47.90
2019-04-27T12:03:11.226Z,46.72
2019-04-27T12:04:12.500Z,49.01
2019-04-27T12:05:07.719Z,47.72
2019-04-27T12:06:05.782Z,48.50
2019-04-27T12:07:06.450Z,48.63
2019-04-27T12:08:06.276Z,49.53
2019-04-27T12:09:06.610Z,50.03
2019-04-27T12:10:05.699Z,48.32
2019-04-27T12:11:05.929Z,49.02
2019-04-27T12:12:14.893Z,49.53
2019-04-27T12:13:07.620Z,49.83
2019-04-27T12:14:06.223Z,49.93
2019-04-27T12:15:05.804Z,50.03
2019-04-27T12:16:09.022Z,49.33
2019-04-27T12:17:06.356Z,50.21
2019-04-27T12:18:08.844Z,50.81
2019-04-27T12:19:06.523Z,50.81
2019-04-27T12:20:04.971Z,50.01
2019-04-27T12:21:06.151Z,50.91
2019-04-27T12:22:06.196Z,49.83
2019-04-27T12:23:07.015Z,48.72
2019-04-27T12:24:04.365Z,48.32
2019-04-27T12:25:06.359Z,48.52
2019-04-27T12:26:05.780Z,48.83
2019-04-27T12:27:05.786Z,48.22
2019-04-27T12:28:11.626Z,49.63
2019-04-27T12:29:06.182Z,48.52
2019-04-27T12:30:06.165Z,47.92
2019-04-27T12:31:04.355Z,47.12
2019-04-27T12:32:05.593Z,48.72
2019-04-27T12:33:04.243Z,49.33
2019-04-27T12:34:06.021Z,49.02
2019-04-27T12:35:04.219Z,49.53
2019-04-27T12:36:04.206Z,47.04
2019-04-27T12:37:07.138Z,45.81
2019-04-27T12:38:05.830Z,46.44
2019-04-27T12:39:05.534Z,46.23
2019-04-27T12:40:05.830Z,47.34
2019-04-27T12:41:06.613Z,46.03
2019-04-27T12:42:06.000Z,47.04
2019-04-27T12:43:04.121Z,47.04
2019-04-27T12:44:04.111Z,47.64
2019-04-27T12:45:04.257Z,47.64
2019-04-27T12:46:05.825Z,47.04
2019-04-27T12:47:04.074Z,47.14
2019-04-27T12:48:04.064Z,47.54
2019-04-27T12:49:05.831Z,49.15
2019-04-27T12:50:04.070Z,48.85
2019-04-27T12:51:04.070Z,49.35
2019-04-27T12:52:05.778Z,49.35
2019-04-27T12:53:04.009Z,49.35
2019-04-27T12:54:05.877Z,48.75
2019-04-27T12:55:04.000Z,48.35
2019-04-27T12:56:04.531Z,48.75
2019-04-27T12:57:05.857Z,50.03
2019-04-27T12:58:03.950Z,49.22
2019-04-27T12:59:03.939Z,49.22
2019-04-27T13:00:03.964Z,49.33
2019-04-27T13:01:07.278Z,49.33
2019-04-27T13:02:03.929Z,49.43
2019-04-27T13:03:03.900Z,48.83
2019-04-27T13:04:03.882Z,47.62
2019-04-27T13:05:05.595Z,46.92
2019-04-27T13:06:03.866Z,47.52
2019-04-27T13:07:03.858Z,47.82
2019-04-27T13:08:03.853Z,47.70